Latest Weather Observations for Gatton

IDQ60801

Issued at 9:32 pm EST Wednesday 19 September 2018 (issued every 10 minutes, with the page automatically refreshed every 10 minutes)

About weather observations | Map of weather stations | Latest weather observations for QLD | Other Formats
Station Details ID: 040082 Name: UNIVERSITY OF QUEENSLAND GATTON Lat: -27.54 Lon: 152.34 Height: 89.0 m
Data from the previous 72 hours. | See also: Recent months at Gatton
Date/Time
EST
Temp
°C
App
Temp
°C
Dew
Point
°C
Rel
Hum
%
Delta-T
°C
Wind Press
QNH
hPa
Press
MSL
hPa
Rain since
9am
mm
Dir  Spd
km/h
Gust
km/h
Spd
kts
Gust
kts
19/09:30pm 18.9 17.3 12.9 68 3.4 SSE 13 17 7 9 - - 0.0
19/09:00pm 19.1 18.4 13.1 68 3.4 SSE 9 17 5 9 - - 0.0
19/08:30pm 19.2 18.3 12.7 66 3.7 SE 9 13 5 7 - - 0.0
19/08:00pm 20.2 19.1 13.2 64 4.0 SSE 11 17 6 9 - - 0.0
19/07:30pm 20.5 19.3 12.7 61 4.4 SSE 11 13 6 7 - - 0.0
19/07:00pm 21.3 20.8 12.7 58 4.9 SE 7 13 4 7 - - 0.0
19/06:30pm 22.3 21.8 12.5 53 5.6 SSE 7 13 4 7 - - 0.0
19/06:00pm 24.0 21.7 12.9 50 6.4 E 17 22 9 12 - - 0.0
19/05:30pm 24.9 22.4 11.1 42 7.8 E 15 17 8 9 - - 0.0
19/05:00pm 27.0 24.0 10.7 36 9.2 E 17 20 9 11 - - 0.0
19/04:30pm 28.3 24.8 10.9 34 9.9 ENE 20 26 11 14 - - 0.0
19/04:00pm 29.8 27.5 10.4 30 11.1 ENE 13 20 7 11 - - 0.0
19/03:30pm 30.2 27.2 10.7 30 11.2 NNE 17 24 9 13 - - 0.0
19/03:00pm 29.6 26.1 10.2 30 11.0 ENE 19 26 10 14 - - 0.0
19/02:30pm 29.8 26.2 9.9 29 11.3 ENE 19 26 10 14 - - 0.0
19/02:00pm 29.3 25.9 10.4 31 10.8 NE 19 39 10 21 - - 0.0
19/01:30pm 29.1 25.7 10.7 32 10.5 NE 19 30 10 16 - - 0.0
19/01:00pm 28.1 24.6 10.3 33 10.1 ENE 19 30 10 16 - - 0.0
19/12:30pm 27.5 24.0 10.2 34 9.7 ENE 19 26 10 14 - - 0.0
19/12:00pm 27.9 24.8 11.5 36 9.4 ENE 19 26 10 14 - - 0.0
19/11:30am 25.2 22.9 10.3 39 8.3 E 13 26 7 14 - - 0.0
19/11:00am 24.3 21.9 10.2 41 7.8 ENE 13 24 7 13 - - 0.0
19/10:30am 23.6 21.1 11.0 45 7.0 N 15 24 8 13 - - 0.0
19/10:00am 22.2 21.0 11.6 51 5.9 ENE 9 17 5 9 - - 0.0
19/09:30am 20.8 18.6 10.9 53 5.4 NE 13 24 7 13 - - 0.0
19/09:00am 19.5 17.4 11.0 58 4.7 ENE 13 20 7 11 - - 0.0
19/08:30am 17.3 14.7 10.7 65 3.5 E 15 19 8 10 - - 0.0
19/08:00am 15.9 14.4 10.7 71 2.8 E 9 13 5 7 - - 0.0
19/07:30am 13.0 12.9 9.3 78 1.9 CALM 0 6 0 3 - - 0.0
19/07:00am 11.2 9.3 8.9 86 1.1 W 9 11 5 6 - - 0.0
19/06:30am 8.9 8.4 8.0 94 0.4 CALM 0 0 0 0 - - 0.0
19/06:00am 6.9 5.5 5.5 91 0.6 WSW 2 7 1 4 - - 0.0
19/05:30am 7.0 4.7 5.6 91 0.6 W 7 9 4 5 - - 0.0
19/05:00am 6.7 5.6 4.9 88 0.8 CALM 0 0 0 0 - - 0.0
19/04:30am 7.6 6.8 6.4 92 0.6 CALM 0 0 0 0 - - 0.0
19/04:00am 7.0 5.9 5.2 88 0.8 CALM 0 0 0 0 - - 0.0
19/03:30am 7.3 6.2 5.3 87 0.9 CALM 0 0 0 0 - - 0.0
19/03:00am 7.9 6.7 6.4 90 0.7 SSE 2 7 1 4 - - 0.0
19/02:30am 7.6 6.5 5.2 85 1.1 CALM 0 0 0 0 - - 0.0
19/02:00am 8.4 7.6 6.5 88 0.9 CALM 0 0 0 0 - - 0.0
19/01:30am 8.5 7.6 6.0 84 1.1 CALM 0 0 0 0 - - 0.0
19/01:00am 8.9 7.0 6.7 86 1.0 ESE 6 9 3 5 - - 0.0
19/12:30am 9.3 8.4 6.2 81 1.4 CALM 0 0 0 0 - - 0.0
19/12:00am 10.0 9.2 6.7 80 1.6 CALM 0 0 0 0 - - 0.0
 
Date/Time
EST
Temp
°C
App
Temp
°C
Dew
Point
°C
Rel
Hum
%
Delta-T
°C
Wind Press
QNH
hPa
Press
MSL
hPa
Rain since
9am
mm
Dir  Spd
km/h
Gust
km/h
Spd
kts
Gust
kts
18/11:30pm 11.2 10.6 7.5 78 1.8 CALM 0 6 0 3 - - 0.0
18/11:00pm 12.9 11.4 8.6 75 2.2 SSE 6 7 3 4 - - 0.0
18/10:30pm 13.6 12.3 9.1 74 2.3 SSE 6 7 3 4 - - 0.0
18/10:00pm 13.7 12.3 9.4 75 2.2 S 7 9 4 5 - - 0.0
18/09:30pm 14.6 13.8 9.8 73 2.5 S 4 6 2 3 - - 0.0
18/09:00pm 14.8 14.4 9.8 72 2.6 ESE 2 7 1 4 - - 0.0
18/08:30pm 14.3 12.9 8.9 70 2.7 NE 6 7 3 4 - - 0.0
18/08:00pm 15.2 13.8 9.6 69 2.9 E 7 11 4 6 - - 0.0
18/07:30pm 16.1 13.7 8.8 62 3.8 E 11 15 6 8 - - 0.0
18/07:00pm 18.1 15.7 10.0 59 4.3 ENE 13 19 7 10 - - 0.0
18/06:30pm 19.2 15.7 10.2 56 4.8 ENE 19 26 10 14 - - 0.0
18/06:00pm 20.0 16.9 10.4 54 5.2 ENE 17 24 9 13 - - 0.0
18/05:30pm 21.4 17.0 10.3 49 6.1 ENE 24 32 13 17 - - 0.0
18/05:00pm 23.5 19.1 9.1 40 7.8 E 22 30 12 16 - - 0.0
18/04:30pm 24.9 21.9 7.5 33 9.2 E 13 20 7 11 - - 0.0
18/04:00pm 25.5 23.2 7.6 32 9.5 ESE 9 15 5 8 - - 0.0
18/03:30pm 25.1 22.9 7.7 33 9.3 E 9 15 5 8 - - 0.0
18/03:00pm 25.9 23.5 8.8 34 9.3 ENE 11 20 6 11 - - 0.0
18/02:30pm 25.1 21.9 8.6 35 8.9 E 15 20 8 11 - - 0.0
18/02:00pm 25.1 23.1 8.6 35 8.9 E 9 20 5 11 - - 0.0
18/01:30pm 24.9 22.3 9.2 37 8.6 NE 13 20 7 11 - - 0.0
18/01:00pm 24.0 21.4 9.2 39 8.0 ENE 13 20 7 11 - - 0.0
18/12:30pm 22.6 20.1 8.3 40 7.6 NNE 11 20 6 11 - - 0.0
18/12:00pm 24.5 21.1 10.4 41 7.8 NNE 19 24 10 13 - - 0.0
18/11:30am 22.4 20.3 9.6 44 6.9 ESE 11 19 6 10 - - 0.0
18/11:00am 21.4 18.2 8.3 43 6.9 ENE 15 22 8 12 - - 0.0
18/10:30am 21.3 18.7 9.5 47 6.3 ENE 13 19 7 10 - - 0.0
18/10:00am 21.9 19.3 10.7 49 6.2 ENE 15 20 8 11 - - 0.0
18/09:30am 20.7 19.4 11.1 54 5.3 ENE 9 15 5 8 - - 0.0
18/09:00am 18.7 17.2 9.2 54 5.0 E 7 15 4 8 - - 0.0
18/08:30am 17.9 17.0 9.3 57 4.5 S 4 9 2 5 - - 0.0
18/08:00am 15.6 14.0 8.8 64 3.5 WSW 7 9 4 5 - - 0.0
18/07:30am 13.4 11.4 8.7 73 2.4 W 9 11 5 6 - - 0.0
18/07:00am 11.6 9.5 8.1 79 1.7 W 9 11 5 6 - - 0.0
18/06:30am 9.7 8.0 7.6 87 1.0 W 6 9 3 5 - - 0.0
18/06:00am 8.4 7.5 6.2 86 1.0 CALM 0 0 0 0 - - 0.0
18/05:30am 8.5 6.3 6.3 86 1.0 WSW 7 9 4 5 - - 0.0
18/05:00am 8.7 6.2 6.7 87 0.9 WSW 9 11 5 6 - - 0.0
18/04:30am 8.3 5.7 6.3 87 0.9 WSW 9 11 5 6 - - 0.0
18/04:00am 8.3 5.7 5.9 85 1.1 W 9 11 5 6 - - 0.0
18/03:30am 8.8 6.6 6.4 85 1.1 W 7 11 4 6 - - 0.0
18/03:00am 9.0 7.1 7.6 91 0.7 WSW 7 11 4 6 - - 0.0
18/02:30am 7.1 6.0 4.9 86 1.0 CALM 0 0 0 0 - - 0.0
18/02:00am 7.6 6.6 5.6 87 0.9 CALM 0 0 0 0 - - 0.0
18/01:30am 7.9 6.9 5.7 86 1.0 CALM 0 0 0 0 - - 0.0
18/01:00am 7.9 6.8 5.2 83 1.2 CALM 0 0 0 0 - - 0.0
18/12:30am 8.9 8.0 6.2 83 1.2 CALM 0 0 0 0 - - 0.0
18/12:00am 8.6 7.5 5.0 78 1.6 CALM 0 0 0 0 - - 0.0
 
Date/Time
EST
Temp
°C
App
Temp
°C
Dew
Point
°C
Rel
Hum
%
Delta-T
°C
Wind Press
QNH
hPa
Press
MSL
hPa
Rain since
9am
mm
Dir  Spd
km/h
Gust
km/h
Spd
kts
Gust
kts
17/11:30pm 9.6 8.7 6.1 79 1.6 CALM 0 0 0 0 - - 0.0
17/11:00pm 11.2 10.3 7.9 80 1.6 NE 2 6 1 3 - - 0.0
17/10:30pm 11.8 9.8 7.3 74 2.2 NNE 7 11 4 6 - - 0.0
17/10:00pm 13.5 11.5 8.8 73 2.4 NE 9 11 5 6 - - 0.0
17/09:30pm 13.9 11.5 8.5 70 2.7 ENE 11 13 6 7 - - 0.0
17/09:00pm 14.1 11.2 8.3 68 2.9 E 13 20 7 11 - - 0.0
17/08:30pm 15.0 12.2 8.7 66 3.2 E 13 20 7 11 - - 0.0
17/08:00pm 15.9 13.1 8.6 62 3.7 ENE 13 20 7 11 - - 0.0
17/07:30pm 16.7 13.2 8.7 59 4.1 E 17 28 9 15 - - 0.0
17/07:00pm 16.9 14.0 8.3 57 4.4 E 13 20 7 11 - - 0.0
17/06:30pm 17.3 13.5 7.4 52 5.0 ENE 17 20 9 11 - - 0.0
17/06:00pm 18.3 13.8 7.1 48 5.6 ENE 20 28 11 15 - - 0.0
17/05:30pm 19.7 14.8 7.1 44 6.4 ENE 22 32 12 17 - - 0.0
17/05:00pm 21.2 16.9 7.8 42 7.0 ENE 20 32 11 17 - - 0.0
17/04:30pm 23.1 18.2 6.8 35 8.4 ENE 22 28 12 15 - - 0.0
17/04:00pm 23.1 19.0 4.6 30 9.2 ENE 15 24 8 13 - - 0.0
17/03:30pm 24.3 20.5 5.6 30 9.5 NE 15 22 8 12 - - 0.0
17/03:00pm 24.1 20.5 5.0 29 9.6 E 13 20 7 11 - - 0.0
17/02:30pm 25.0 21.3 6.2 30 9.7 ENE 15 24 8 13 - - 0.0
17/02:00pm 23.2 20.8 5.1 31 9.1 ENE 7 15 4 8 - - 0.0
17/01:30pm 22.9 18.7 5.8 33 8.7 E 17 22 9 12 - - 0.0
17/01:00pm 24.3 20.3 6.6 32 9.2 ENE 17 28 9 15 - - 0.0
17/12:30pm 23.5 19.4 6.3 33 8.8 ENE 17 22 9 12 - - 0.0
17/12:00pm 23.9 19.5 6.7 33 8.9 E 19 28 10 15 - - 0.0
17/11:30am 22.2 18.8 6.0 35 8.2 SE 13 22 7 12 - - 0.0
17/11:00am 22.0 17.8 5.8 35 8.2 ENE 17 26 9 14 - - 0.0
17/10:30am 21.3 17.1 5.6 36 7.8 E 17 24 9 13 - - 0.0
17/10:00am 20.4 16.5 5.2 37 7.5 E 15 24 8 13 - - 0.0
17/09:30am 19.7 16.5 6.8 43 6.5 ESE 13 22 7 12 - - 0.0
17/09:00am 17.6 13.8 5.9 46 5.7 SSE 15 20 8 11 - - 0.0
17/08:30am 16.9 13.5 6.1 49 5.3 E 13 17 7 9 - - 0.0
17/08:00am 15.6 13.7 6.9 56 4.3 N 6 13 3 7 - - 0.0
17/07:30am 12.1 9.7 5.3 63 3.2 W 7 11 4 6 - - 0.0
17/07:00am 9.5 6.0 3.7 67 2.5 WSW 11 13 6 7 - - 0.0
17/06:30am 7.7 4.5 3.2 73 1.9 W 9 11 5 6 - - 0.0
17/06:00am 6.4 3.0 1.7 72 1.9 W 9 13 5 7 - - 0.0
17/05:30am 7.1 3.0 2.4 72 2.0 WSW 13 15 7 8 - - 0.0
17/05:00am 6.5 3.0 1.4 70 2.1 WSW 9 11 5 6 - - 0.0
17/04:30am 6.8 3.3 1.5 69 2.1 WSW 9 11 5 6 - - 0.0
17/04:00am 7.1 4.4 2.4 72 2.0 WSW 6 7 3 4 - - 0.0
17/03:30am 9.6 8.2 3.4 65 2.7 CALM 0 6 0 3 - - 0.0
17/03:00am 11.9 9.4 4.9 62 3.2 SSE 7 9 4 5 - - 0.0
17/02:30am 11.8 8.9 4.8 62 3.2 SSE 9 11 5 6 - - 0.0
17/02:00am 12.2 11.0 4.4 59 3.6 CALM 0 0 0 0 - - 0.0
17/01:30am 13.3 10.9 4.5 55 4.1 SE 6 9 3 5 - - 0.0
17/01:00am 14.0 11.6 5.1 55 4.2 SSE 7 13 4 7 - - 0.0
17/12:30am 14.2 11.2 5.8 57 4.0 S 11 17 6 9 - - 0.0
17/12:00am 13.3 10.9 5.2 58 3.8 SE 7 13 4 7 - - 0.0
 
Date/Time
EST
Temp
°C
App
Temp
°C
Dew
Point
°C
Rel
Hum
%
Delta-T
°C
Wind Press
QNH
hPa
Press
MSL
hPa
Rain since
9am
mm
Dir  Spd
km/h
Gust
km/h
Spd
kts
Gust
kts
16/11:30pm 13.8 11.4 5.4 57 4.0 SE 7 11 4 6 - - 0.0
16/11:00pm 14.3 11.2 5.7 56 4.1 ESE 11 15 6 8 - - 0.0
16/10:30pm 15.2 12.2 6.0 54 4.4 ESE 11 17 6 9 - - 0.0
16/10:00pm 15.7 12.5 6.7 55 4.4 ESE 13 19 7 10 - - 0.0

Other Formats:

Comma delimited format used in spreadsheet applications
http://www.bom.gov.au/fwo/IDQ60801/IDQ60801.94562.axf

JavaScript Object Notation format (JSON) in row-major order
http://www.bom.gov.au/fwo/IDQ60801/IDQ60801.94562.json